createdAt,value
2022-08-05T00:00:16.215Z,22.29
2022-08-05T00:03:24.086Z,22.29
2022-08-05T00:06:29.214Z,22.26
2022-08-05T00:09:30.133Z,22.26
2022-08-05T00:12:29.036Z,22.26
2022-08-05T00:15:55.173Z,22.23
2022-08-05T00:18:44.249Z,22.21
2022-08-05T00:21:42.728Z,22.15
2022-08-05T00:24:44.055Z,22.12
2022-08-05T00:27:42.811Z,22.09
2022-08-05T00:30:41.105Z,22.06
2022-08-05T00:34:53.692Z,22.08
2022-08-05T00:37:12.484Z,22.05
2022-08-05T00:40:14.844Z,22.02
2022-08-05T00:43:15.286Z,21.98
2022-08-05T00:46:12.988Z,21.94
2022-08-05T00:49:15.368Z,21.95
2022-08-05T00:52:15.859Z,21.93
2022-08-05T00:55:15.072Z,21.88
2022-08-05T00:58:11.950Z,21.85
2022-08-05T01:01:09.746Z,21.83
2022-08-05T01:04:13.922Z,21.80
2022-08-05T01:07:13.589Z,21.77
2022-08-05T01:10:11.274Z,21.74
2022-08-05T01:13:13.417Z,21.69
2022-08-05T01:16:26.123Z,21.70
2022-08-05T01:19:46.225Z,21.66
2022-08-05T01:22:57.438Z,21.63
2022-08-05T01:25:54.776Z,21.59
2022-08-05T01:28:50.954Z,21.56
2022-08-05T01:31:48.058Z,21.55
2022-08-05T01:34:44.961Z,21.50
2022-08-05T01:37:44.311Z,21.50
2022-08-05T01:40:42.026Z,21.46
2022-08-05T01:43:38.886Z,21.44
2022-08-05T01:46:42.154Z,21.40
2022-08-05T01:50:00.357Z,21.37
2022-08-05T01:52:58.909Z,21.35
2022-08-05T01:55:55.994Z,21.34
2022-08-05T01:58:54.950Z,21.31
2022-08-05T02:01:51.822Z,21.31
2022-08-05T02:04:52.097Z,21.30
2022-08-05T02:07:59.784Z,21.30
2022-08-05T02:10:57.926Z,21.26
2022-08-05T02:13:54.858Z,21.25
2022-08-05T02:16:52.771Z,21.23
2022-08-05T02:19:51.045Z,21.20
2022-08-05T02:22:47.966Z,21.20
2022-08-05T02:25:50.141Z,21.18
2022-08-05T02:28:47.876Z,21.15
2022-08-05T02:31:46.904Z,21.14
2022-08-05T02:34:44.071Z,21.11
2022-08-05T02:37:54.156Z,21.13
2022-08-05T02:40:52.086Z,21.11
2022-08-05T02:44:06.416Z,21.06
2022-08-05T02:47:05.956Z,21.08
2022-08-05T02:50:02.868Z,21.07
2022-08-05T02:52:59.976Z,21.08
2022-08-05T02:56:01.839Z,21.12
2022-08-05T02:58:59.965Z,21.10
2022-08-05T03:02:01.061Z,21.13
2022-08-05T03:04:58.026Z,21.16
2022-08-05T03:08:06.858Z,21.15
2022-08-05T03:11:54.488Z,21.17
2022-08-05T03:14:28.864Z,21.19
2022-08-05T03:17:26.346Z,21.15
2022-08-05T03:20:25.089Z,21.14
2022-08-05T03:23:24.179Z,21.09
2022-08-05T03:26:31.353Z,21.08
2022-08-05T03:29:45.270Z,21.05
2022-08-05T03:32:47.756Z,21.00
2022-08-05T03:35:44.882Z,20.99
2022-08-05T03:38:42.057Z,20.98
2022-08-05T03:41:46.762Z,20.93
2022-08-05T03:44:43.906Z,20.90
2022-08-05T03:47:42.050Z,20.86
2022-08-05T03:50:38.954Z,20.85
2022-08-05T03:55:53.175Z,20.81
2022-08-05T03:56:53.859Z,20.79
2022-08-05T03:59:54.709Z,20.79
2022-08-05T04:02:58.500Z,20.83
2022-08-05T04:05:56.479Z,20.86
2022-08-05T04:08:55.825Z,20.86
2022-08-05T04:11:52.977Z,20.88
2022-08-05T04:14:49.956Z,20.90
2022-08-05T04:17:56.326Z,20.92
2022-08-05T04:20:57.813Z,20.92
2022-08-05T04:24:06.745Z,20.90
2022-08-05T04:27:06.819Z,20.88
2022-08-05T04:30:04.935Z,20.87
2022-08-05T04:33:03.872Z,20.87
2022-08-05T04:36:15.989Z,20.84
2022-08-05T04:39:18.915Z,20.84
2022-08-05T04:42:15.696Z,20.81
2022-08-05T04:45:22.940Z,20.86
2022-08-05T04:48:28.867Z,20.90
2022-08-05T04:51:30.311Z,20.92
2022-08-05T04:54:31.355Z,20.96
2022-08-05T04:57:37.121Z,20.97
2022-08-05T05:00:34.937Z,21.00
2022-08-05T05:03:41.694Z,21.01
2022-08-05T05:06:51.987Z,21.04
2022-08-05T05:10:07.204Z,21.02
2022-08-05T05:13:05.613Z,21.03
2022-08-05T05:16:07.267Z,21.03
2022-08-05T05:19:18.556Z,21.05
2022-08-05T05:22:24.238Z,21.06
2022-08-05T05:25:40.295Z,21.08
2022-08-05T05:28:42.677Z,21.11
2022-08-05T05:34:36.486Z,21.15
2022-08-05T05:38:09.167Z,21.18
2022-08-05T05:41:16.400Z,21.20
2022-08-05T05:48:07.141Z,21.26
2022-08-05T05:50:50.996Z,21.30
2022-08-05T05:53:57.259Z,21.35
2022-08-05T05:56:47.312Z,21.40
2022-08-05T05:59:44.915Z,21.50
2022-08-05T06:02:41.888Z,21.58
2022-08-05T06:05:38.998Z,21.66
2022-08-05T06:08:35.838Z,21.72
2022-08-05T06:11:39.369Z,21.79
2022-08-05T06:15:05.672Z,21.86
2022-08-05T06:18:05.730Z,21.95
2022-08-05T06:21:18.684Z,22.04
2022-08-05T06:24:31.590Z,22.13
2022-08-05T06:28:10.755Z,22.20
2022-08-05T06:31:10.900Z,22.34
2022-08-05T06:34:14.971Z,22.45
2022-08-05T06:37:12.875Z,22.60
2022-08-05T06:40:32.331Z,22.81
2022-08-05T06:46:50.954Z,23.21
2022-08-05T06:50:05.280Z,23.42
2022-08-05T06:53:11.688Z,23.59
2022-08-05T06:56:26.625Z,23.82
2022-08-05T06:59:23.621Z,23.99
2022-08-05T07:02:22.868Z,24.19
2022-08-05T07:05:22.318Z,24.37
2022-08-05T07:08:25.507Z,24.58
2022-08-05T07:11:25.472Z,24.72
2022-08-05T07:14:33.215Z,24.93
2022-08-05T07:18:09.236Z,25.10
2022-08-05T07:20:48.609Z,25.32
2022-08-05T07:23:50.007Z,25.48
2022-08-05T07:26:48.742Z,25.67
2022-08-05T07:30:22.065Z,25.82
2022-08-05T07:33:05.424Z,25.98
2022-08-05T07:36:20.557Z,26.16
2022-08-05T07:39:24.736Z,26.34
2022-08-05T07:42:38.711Z,26.49
2022-08-05T07:45:57.518Z,26.61
2022-08-05T07:49:10.910Z,26.73
2022-08-05T07:52:06.648Z,26.89
2022-08-05T07:59:38.716Z,27.20
2022-08-05T08:03:14.308Z,27.31
2022-08-05T08:05:53.803Z,27.50
2022-08-05T08:08:41.819Z,27.62
2022-08-05T08:11:49.499Z,27.67
2022-08-05T08:14:52.808Z,27.79
2022-08-05T08:17:52.796Z,27.86
2022-08-05T08:20:59.805Z,27.98
2022-08-05T08:24:04.003Z,28.09
2022-08-05T08:26:09.225Z,28.24
2022-08-05T08:28:59.454Z,28.36
2022-08-05T08:31:33.277Z,28.50
2022-08-05T08:34:05.208Z,28.61
2022-08-05T08:36:48.834Z,28.71
2022-08-05T08:39:25.129Z,28.82
2022-08-05T08:42:34.161Z,28.92
2022-08-05T08:45:44.820Z,29.06
2022-08-05T08:48:41.381Z,29.19
2022-08-05T08:52:04.031Z,29.31
2022-08-05T08:54:39.436Z,29.40
2022-08-05T08:57:17.707Z,29.48
2022-08-05T09:00:31.914Z,29.58
2022-08-05T09:03:44.852Z,29.68
2022-08-05T09:06:46.813Z,29.75
2022-08-05T09:09:46.846Z,29.90
2022-08-05T09:12:53.658Z,30.01
2022-08-05T09:15:54.116Z,30.12
2022-08-05T09:18:52.859Z,30.22
2022-08-05T09:22:23.622Z,30.37
2022-08-05T09:25:13.945Z,30.47
2022-08-05T09:28:34.543Z,30.53
2022-08-05T09:32:40.245Z,30.53
2022-08-05T09:35:04.454Z,30.60
2022-08-05T09:38:12.749Z,30.67
2022-08-05T09:41:17.786Z,30.78
2022-08-05T09:44:07.814Z,30.83
2022-08-05T09:46:58.164Z,30.89
2022-08-05T09:50:00.951Z,30.97
2022-08-05T09:52:35.532Z,31.03
2022-08-05T09:55:58.137Z,31.11
2022-08-05T09:58:26.582Z,31.24
2022-08-05T10:01:32.119Z,31.29
2022-08-05T10:04:49.659Z,31.38
2022-08-05T10:08:11.171Z,31.40
2022-08-05T10:11:15.691Z,31.49
2022-08-05T10:13:49.851Z,31.59
2022-08-05T10:16:52.973Z,31.66
2022-08-05T10:20:03.613Z,31.68
2022-08-05T10:22:37.666Z,31.70
2022-08-05T10:25:24.327Z,31.81
2022-08-05T10:28:19.479Z,31.90
2022-08-05T10:32:54.223Z,31.97
2022-08-05T10:34:41.535Z,32.00
2022-08-05T10:37:26.667Z,32.07
2022-08-05T10:40:27.907Z,32.18
2022-08-05T10:43:13.596Z,32.21
2022-08-05T10:46:13.936Z,32.22
2022-08-05T10:49:16.618Z,32.25
2022-08-05T10:52:16.521Z,32.31
2022-08-05T10:55:16.096Z,32.41
2022-08-05T10:58:18.007Z,32.50
2022-08-05T11:01:28.413Z,32.62
2022-08-05T11:04:36.591Z,32.71
2022-08-05T11:08:01.322Z,32.75
2022-08-05T11:11:01.003Z,32.84
2022-08-05T11:14:04.081Z,32.93
2022-08-05T11:16:57.974Z,32.99
2022-08-05T11:20:16.927Z,32.99
2022-08-05T11:23:17.476Z,32.96
2022-08-05T11:26:15.630Z,32.92
2022-08-05T11:29:25.676Z,32.91
2022-08-05T11:32:23.417Z,32.94
2022-08-05T11:35:26.245Z,32.99
2022-08-05T11:38:37.333Z,33.02
2022-08-05T11:42:01.183Z,33.05
2022-08-05T11:45:03.010Z,33.09
2022-08-05T11:48:03.514Z,33.12
2022-08-05T11:51:00.682Z,33.18
2022-08-05T11:53:58.773Z,33.23
2022-08-05T11:56:56.601Z,33.28
2022-08-05T11:59:59.758Z,33.31
2022-08-05T12:03:08.001Z,33.36
2022-08-05T12:05:54.863Z,33.44
2022-08-05T12:09:04.933Z,33.51
2022-08-05T12:11:56.589Z,33.54
2022-08-05T12:14:57.698Z,33.55
2022-08-05T12:18:04.274Z,33.62
2022-08-05T12:21:07.596Z,33.60
2022-08-05T12:24:17.339Z,33.60
2022-08-05T12:27:09.699Z,33.60
2022-08-05T12:30:23.221Z,33.57
2022-08-05T12:33:36.689Z,33.63
2022-08-05T12:36:35.467Z,33.68
2022-08-05T12:39:23.534Z,33.72
2022-08-05T12:42:25.264Z,33.71
2022-08-05T12:45:22.637Z,33.70
2022-08-05T12:48:39.995Z,33.71
2022-08-05T12:52:10.760Z,33.68
2022-08-05T12:54:40.813Z,33.68
2022-08-05T12:58:50.149Z,33.72
2022-08-05T13:02:00.940Z,33.67
2022-08-05T13:04:07.550Z,33.65
2022-08-05T13:07:10.489Z,33.53
2022-08-05T13:10:05.225Z,33.42
2022-08-05T13:13:03.108Z,33.36
2022-08-05T13:15:52.369Z,33.27
2022-08-05T13:18:38.144Z,33.20
2022-08-05T13:21:38.163Z,33.19
2022-08-05T13:24:57.706Z,33.14
2022-08-05T13:31:20.336Z,32.94
2022-08-05T13:34:38.145Z,32.86
2022-08-05T13:37:34.818Z,32.72
2022-08-05T13:40:35.541Z,32.64
2022-08-05T13:43:45.651Z,32.51
2022-08-05T13:47:02.238Z,32.34
2022-08-05T13:57:02.684Z,32.08
2022-08-05T14:03:11.645Z,31.89
2022-08-05T14:09:29.809Z,31.75
2022-08-05T14:12:32.787Z,31.71
2022-08-05T14:16:07.314Z,31.65
2022-08-05T14:19:04.379Z,31.57
2022-08-05T14:22:17.433Z,31.46
2022-08-05T14:24:56.385Z,31.35
2022-08-05T14:27:47.495Z,31.33
2022-08-05T14:30:39.669Z,31.28
2022-08-05T14:33:59.350Z,31.23
2022-08-05T14:36:38.302Z,31.15
2022-08-05T14:39:24.475Z,31.16
2022-08-05T14:42:21.220Z,31.13
2022-08-05T14:44:57.443Z,31.09
2022-08-05T14:48:03.269Z,31.06
2022-08-05T14:50:57.795Z,31.00
2022-08-05T14:54:25.833Z,30.99
2022-08-05T15:00:58.238Z,30.93
2022-08-05T15:03:57.573Z,30.87
2022-08-05T15:06:54.420Z,30.82
2022-08-05T15:09:53.998Z,30.82
2022-08-05T15:13:03.297Z,30.80
2022-08-05T15:18:56.058Z,30.74
2022-08-05T15:21:37.429Z,30.68
2022-08-05T15:24:31.347Z,30.71
2022-08-05T15:27:25.751Z,30.70
2022-08-05T15:30:02.328Z,30.68
2022-08-05T15:32:49.436Z,30.69
2022-08-05T15:35:59.121Z,30.66
2022-08-05T15:38:49.345Z,30.62
2022-08-05T15:42:50.114Z,30.59
2022-08-05T15:45:11.933Z,30.58
2022-08-05T15:47:47.387Z,30.56
2022-08-05T15:50:45.592Z,30.54
2022-08-05T15:53:38.200Z,30.53
2022-08-05T15:56:44.453Z,30.52
2022-08-05T15:59:23.477Z,30.51
2022-08-05T16:02:19.682Z,30.49
2022-08-05T16:05:23.272Z,30.47
2022-08-05T16:08:16.083Z,30.45
2022-08-05T16:11:14.638Z,30.47
2022-08-05T16:14:17.230Z,30.46
2022-08-05T16:17:07.828Z,30.44
2022-08-05T16:20:11.585Z,30.42
2022-08-05T16:23:04.292Z,30.39
2022-08-05T16:26:09.645Z,30.39
2022-08-05T16:34:10.196Z,30.38
2022-08-05T16:36:44.634Z,30.36
2022-08-05T16:40:05.735Z,30.35
2022-08-05T16:47:04.924Z,30.30
2022-08-05T16:50:01.406Z,30.26
2022-08-05T16:52:57.378Z,30.24
2022-08-05T16:56:02.665Z,30.22
2022-08-05T16:59:19.314Z,30.18
2022-08-05T17:07:01.739Z,30.13
2022-08-05T17:09:38.945Z,30.09
2022-08-05T17:22:27.556Z,29.98
2022-08-05T17:26:04.771Z,29.94
2022-08-05T17:33:38.901Z,29.83
2022-08-05T17:36:41.138Z,29.76
2022-08-05T17:45:00.358Z,29.61
2022-08-05T17:48:39.209Z,29.49
2022-08-05T17:51:40.125Z,29.40
2022-08-05T17:54:23.665Z,29.32
2022-08-05T18:00:28.621Z,29.16
2022-08-05T18:08:18.507Z,28.94
2022-08-05T18:19:17.808Z,28.61
2022-08-05T18:36:28.629Z,28.10
2022-08-05T18:40:33.641Z,28.09
2022-08-05T18:43:49.396Z,28.05
2022-08-05T18:46:25.886Z,28.00
2022-08-05T18:50:45.117Z,27.98
2022-08-05T18:53:50.325Z,27.94
2022-08-05T18:56:41.432Z,27.90
2022-08-05T19:00:13.357Z,27.87
2022-08-05T19:03:53.453Z,27.83
2022-08-05T19:07:12.577Z,27.80
2022-08-05T19:10:32.235Z,27.77
2022-08-05T19:13:30.654Z,27.74
2022-08-05T19:16:51.749Z,27.70
2022-08-05T19:19:51.939Z,27.65
2022-08-05T19:24:04.461Z,27.59
2022-08-05T19:26:55.772Z,27.55
2022-08-05T19:30:20.565Z,27.52
2022-08-05T19:33:56.481Z,27.46
2022-08-05T19:37:19.490Z,27.39
2022-08-05T19:40:37.942Z,27.29
2022-08-05T19:44:05.772Z,27.25
2022-08-05T19:47:25.335Z,27.20
2022-08-05T19:50:45.983Z,27.15
2022-08-05T19:54:21.969Z,27.11
2022-08-05T19:58:07.039Z,27.07
2022-08-05T20:01:29.665Z,27.00
2022-08-05T20:05:05.043Z,26.93
2022-08-05T20:08:28.748Z,26.85
2022-08-05T20:11:54.264Z,26.75
2022-08-05T20:15:12.130Z,26.64
2022-08-05T20:18:35.863Z,26.56
2022-08-05T20:21:54.385Z,26.57
2022-08-05T20:25:33.807Z,26.56
2022-08-05T20:29:00.748Z,26.52
2022-08-05T20:32:18.555Z,26.48
2022-08-05T20:40:04.498Z,26.36
2022-08-05T20:44:30.707Z,26.30
2022-08-05T20:47:32.025Z,26.26
2022-08-05T20:50:48.368Z,26.21
2022-08-05T20:53:42.832Z,26.15
2022-08-05T20:57:43.893Z,26.19
2022-08-05T21:00:54.581Z,26.17
2022-08-05T21:03:48.122Z,26.19
2022-08-05T21:13:10.371Z,26.12
2022-08-05T21:34:31.692Z,25.72
2022-08-05T21:39:26.273Z,25.64
2022-08-05T21:51:25.179Z,25.48
2022-08-05T23:31:17.213Z,24.34
